sensor_id;sensor_type;location;lat;lon;timestamp;P1;durP1;ratioP1;P2;durP2;ratioP2
70757;SDS011;59316;52.964;7.102;2023-05-21T00:03:38;6.05;;;3.83;;
70757;SDS011;59316;52.964;7.102;2023-05-21T00:09:00;8.30;;;4.00;;
70757;SDS011;59316;52.964;7.102;2023-05-21T00:14:25;6.20;;;3.83;;
70757;SDS011;59316;52.964;7.102;2023-05-21T00:19:46;6.50;;;3.63;;
70757;SDS011;59316;52.964;7.102;2023-05-21T00:25:08;6.97;;;4.90;;
70757;SDS011;59316;52.964;7.102;2023-05-21T00:30:31;6.90;;;4.07;;
70757;SDS011;59316;52.964;7.102;2023-05-21T00:35:52;5.97;;;4.35;;
70757;SDS011;59316;52.964;7.102;2023-05-21T00:41:15;8.55;;;4.70;;
70757;SDS011;59316;52.964;7.102;2023-05-21T00:46:38;6.60;;;4.65;;
70757;SDS011;59316;52.964;7.102;2023-05-21T00:52:00;7.25;;;4.47;;
70757;SDS011;59316;52.964;7.102;2023-05-21T00:57:22;8.55;;;4.22;;
70757;SDS011;59316;52.964;7.102;2023-05-21T01:08:07;7.07;;;4.50;;
70757;SDS011;59316;52.964;7.102;2023-05-21T01:13:29;12.05;;;4.75;;
70757;SDS011;59316;52.964;7.102;2023-05-21T01:24:15;9.13;;;5.07;;
70757;SDS011;59316;52.964;7.102;2023-05-21T01:29:36;9.25;;;4.82;;
70757;SDS011;59316;52.964;7.102;2023-05-21T01:35:07;5.75;;;4.18;;
70757;SDS011;59316;52.964;7.102;2023-05-21T01:40:38;8.45;;;4.95;;
70757;SDS011;59316;52.964;7.102;2023-05-21T01:46:16;6.82;;;4.65;;
70757;SDS011;59316;52.964;7.102;2023-05-21T01:51:42;7.53;;;4.90;;
70757;SDS011;59316;52.964;7.102;2023-05-21T01:57:03;10.18;;;5.30;;
70757;SDS011;59316;52.964;7.102;2023-05-21T02:02:25;9.80;;;5.55;;
70757;SDS011;59316;52.964;7.102;2023-05-21T02:07:48;10.18;;;4.90;;
70757;SDS011;59316;52.964;7.102;2023-05-21T02:13:10;9.50;;;5.93;;
70757;SDS011;59316;52.964;7.102;2023-05-21T02:18:32;9.63;;;5.35;;
70757;SDS011;59316;52.964;7.102;2023-05-21T02:23:53;8.73;;;5.32;;
70757;SDS011;59316;52.964;7.102;2023-05-21T02:29:15;10.85;;;5.30;;
70757;SDS011;59316;52.964;7.102;2023-05-21T02:34:36;11.77;;;6.00;;
70757;SDS011;59316;52.964;7.102;2023-05-21T02:39:58;12.65;;;5.72;;
70757;SDS011;59316;52.964;7.102;2023-05-21T02:45:22;10.15;;;5.45;;
70757;SDS011;59316;52.964;7.102;2023-05-21T02:50:43;8.85;;;5.28;;
70757;SDS011;59316;52.964;7.102;2023-05-21T02:56:05;13.43;;;5.93;;
70757;SDS011;59316;52.964;7.102;2023-05-21T03:01:26;10.07;;;5.50;;
70757;SDS011;59316;52.964;7.102;2023-05-21T03:06:49;9.38;;;5.30;;
70757;SDS011;59316;52.964;7.102;2023-05-21T03:12:10;8.70;;;5.13;;
70757;SDS011;59316;52.964;7.102;2023-05-21T03:17:32;12.32;;;5.13;;
70757;SDS011;59316;52.964;7.102;2023-05-21T03:22:53;11.30;;;4.78;;
70757;SDS011;59316;52.964;7.102;2023-05-21T03:28:15;8.88;;;4.93;;
70757;SDS011;59316;52.964;7.102;2023-05-21T03:33:41;10.55;;;5.90;;
70757;SDS011;59316;52.964;7.102;2023-05-21T03:39:23;7.78;;;4.78;;
70757;SDS011;59316;52.964;7.102;2023-05-21T03:44:47;8.53;;;5.07;;
70757;SDS011;59316;52.964;7.102;2023-05-21T03:50:27;7.25;;;4.82;;
70757;SDS011;59316;52.964;7.102;2023-05-21T03:55:48;7.63;;;4.97;;
70757;SDS011;59316;52.964;7.102;2023-05-21T04:01:10;7.50;;;4.40;;
70757;SDS011;59316;52.964;7.102;2023-05-21T04:06:32;10.43;;;4.70;;
70757;SDS011;59316;52.964;7.102;2023-05-21T04:11:53;9.45;;;4.75;;
70757;SDS011;59316;52.964;7.102;2023-05-21T04:17:15;9.88;;;4.43;;
70757;SDS011;59316;52.964;7.102;2023-05-21T04:22:36;9.02;;;4.28;;
70757;SDS011;59316;52.964;7.102;2023-05-21T04:27:58;7.63;;;4.55;;
70757;SDS011;59316;52.964;7.102;2023-05-21T04:33:20;8.48;;;4.55;;
70757;SDS011;59316;52.964;7.102;2023-05-21T04:38:42;7.82;;;4.35;;
70757;SDS011;59316;52.964;7.102;2023-05-21T04:44:06;11.30;;;4.50;;
70757;SDS011;59316;52.964;7.102;2023-05-21T04:49:29;10.23;;;4.32;;
70757;SDS011;59316;52.964;7.102;2023-05-21T04:54:52;9.60;;;4.60;;
70757;SDS011;59316;52.964;7.102;2023-05-21T05:00:14;7.97;;;3.70;;
70757;SDS011;59316;52.964;7.102;2023-05-21T05:05:36;8.52;;;4.05;;
70757;SDS011;59316;52.964;7.102;2023-05-21T05:10:58;7.78;;;4.07;;
70757;SDS011;59316;52.964;7.102;2023-05-21T05:16:20;9.27;;;4.15;;
70757;SDS011;59316;52.964;7.102;2023-05-21T05:21:41;9.57;;;4.45;;
70757;SDS011;59316;52.964;7.102;2023-05-21T05:27:04;8.07;;;3.20;;
70757;SDS011;59316;52.964;7.102;2023-05-21T05:32:25;5.88;;;3.38;;
70757;SDS011;59316;52.964;7.102;2023-05-21T05:37:48;10.63;;;3.67;;
70757;SDS011;59316;52.964;7.102;2023-05-21T05:43:09;6.88;;;3.30;;
70757;SDS011;59316;52.964;7.102;2023-05-21T05:48:31;5.25;;;3.58;;
70757;SDS011;59316;52.964;7.102;2023-05-21T05:53:54;4.78;;;3.38;;
70757;SDS011;59316;52.964;7.102;2023-05-21T05:59:15;5.15;;;3.40;;
70757;SDS011;59316;52.964;7.102;2023-05-21T06:04:41;7.07;;;3.53;;
70757;SDS011;59316;52.964;7.102;2023-05-21T06:10:04;6.43;;;3.25;;
70757;SDS011;59316;52.964;7.102;2023-05-21T06:15:26;7.38;;;3.20;;
70757;SDS011;59316;52.964;7.102;2023-05-21T06:20:48;7.95;;;3.35;;
70757;SDS011;59316;52.964;7.102;2023-05-21T06:26:11;5.57;;;3.33;;
70757;SDS011;59316;52.964;7.102;2023-05-21T06:31:33;6.20;;;3.15;;
70757;SDS011;59316;52.964;7.102;2023-05-21T06:36:55;8.55;;;3.90;;
70757;SDS011;59316;52.964;7.102;2023-05-21T06:42:16;5.25;;;3.00;;
70757;SDS011;59316;52.964;7.102;2023-05-21T06:47:57;6.57;;;3.25;;
70757;SDS011;59316;52.964;7.102;2023-05-21T06:53:19;7.30;;;3.33;;
70757;SDS011;59316;52.964;7.102;2023-05-21T06:58:41;5.78;;;3.28;;
70757;SDS011;59316;52.964;7.102;2023-05-21T07:04:02;5.93;;;3.33;;
70757;SDS011;59316;52.964;7.102;2023-05-21T07:09:24;6.55;;;3.13;;
70757;SDS011;59316;52.964;7.102;2023-05-21T07:14:46;5.97;;;3.50;;
70757;SDS011;59316;52.964;7.102;2023-05-21T07:20:08;5.50;;;2.88;;
70757;SDS011;59316;52.964;7.102;2023-05-21T07:25:33;8.75;;;3.65;;
70757;SDS011;59316;52.964;7.102;2023-05-21T07:30:56;7.53;;;3.30;;
70757;SDS011;59316;52.964;7.102;2023-05-21T07:36:25;7.63;;;3.40;;
70757;SDS011;59316;52.964;7.102;2023-05-21T07:41:46;7.22;;;3.30;;
70757;SDS011;59316;52.964;7.102;2023-05-21T07:47:08;6.55;;;3.28;;
70757;SDS011;59316;52.964;7.102;2023-05-21T07:52:29;6.75;;;3.63;;
70757;SDS011;59316;52.964;7.102;2023-05-21T07:57:52;6.57;;;3.30;;
70757;SDS011;59316;52.964;7.102;2023-05-21T08:03:19;5.82;;;3.58;;
70757;SDS011;59316;52.964;7.102;2023-05-21T08:08:42;8.20;;;3.42;;
70757;SDS011;59316;52.964;7.102;2023-05-21T08:14:03;5.20;;;3.30;;
70757;SDS011;59316;52.964;7.102;2023-05-21T08:19:25;5.13;;;3.55;;
70757;SDS011;59316;52.964;7.102;2023-05-21T08:24:46;6.65;;;3.47;;
70757;SDS011;59316;52.964;7.102;2023-05-21T08:30:08;7.43;;;3.80;;
70757;SDS011;59316;52.964;7.102;2023-05-21T08:35:30;6.32;;;3.80;;
70757;SDS011;59316;52.964;7.102;2023-05-21T08:41:01;8.93;;;4.13;;
70757;SDS011;59316;52.964;7.102;2023-05-21T08:46:28;9.13;;;4.10;;
70757;SDS011;59316;52.964;7.102;2023-05-21T08:51:53;6.25;;;4.10;;
70757;SDS011;59316;52.964;7.102;2023-05-21T08:57:16;6.50;;;4.18;;
70757;SDS011;59316;52.964;7.102;2023-05-21T09:02:40;8.15;;;4.07;;
70757;SDS011;59316;52.964;7.102;2023-05-21T09:08:04;7.20;;;4.50;;
70757;SDS011;59316;52.964;7.102;2023-05-21T09:13:45;9.03;;;4.70;;
70757;SDS011;59316;52.964;7.102;2023-05-21T09:19:15;9.80;;;4.88;;
70757;SDS011;59316;52.964;7.102;2023-05-21T09:24:39;9.02;;;4.97;;
70757;SDS011;59316;52.964;7.102;2023-05-21T09:30:06;6.80;;;4.45;;
70757;SDS011;59316;52.964;7.102;2023-05-21T09:35:32;8.32;;;5.32;;
70757;SDS011;59316;52.964;7.102;2023-05-21T09:40:55;7.30;;;5.03;;
70757;SDS011;59316;52.964;7.102;2023-05-21T09:46:19;7.03;;;5.68;;
70757;SDS011;59316;52.964;7.102;2023-05-21T09:51:46;8.65;;;5.78;;
70757;SDS011;59316;52.964;7.102;2023-05-21T09:57:07;11.38;;;6.38;;
70757;SDS011;59316;52.964;7.102;2023-05-21T10:02:29;11.13;;;6.28;;
70757;SDS011;59316;52.964;7.102;2023-05-21T10:07:52;10.30;;;6.90;;
70757;SDS011;59316;52.964;7.102;2023-05-21T10:13:22;10.40;;;6.68;;
70757;SDS011;59316;52.964;7.102;2023-05-21T10:18:43;11.52;;;6.68;;
70757;SDS011;59316;52.964;7.102;2023-05-21T10:24:07;12.20;;;7.40;;
70757;SDS011;59316;52.964;7.102;2023-05-21T10:29:29;14.27;;;8.38;;
70757;SDS011;59316;52.964;7.102;2023-05-21T10:34:55;11.88;;;8.00;;
70757;SDS011;59316;52.964;7.102;2023-05-21T10:40:19;10.90;;;7.10;;
70757;SDS011;59316;52.964;7.102;2023-05-21T10:52:02;15.07;;;8.40;;
70757;SDS011;59316;52.964;7.102;2023-05-21T11:03:35;14.52;;;9.25;;
70757;SDS011;59316;52.964;7.102;2023-05-21T11:09:01;15.87;;;10.23;;
70757;SDS011;59316;52.964;7.102;2023-05-21T11:14:36;14.27;;;10.10;;
70757;SDS011;59316;52.964;7.102;2023-05-21T11:20:07;18.52;;;10.90;;
70757;SDS011;59316;52.964;7.102;2023-05-21T11:25:32;13.98;;;10.23;;
70757;SDS011;59316;52.964;7.102;2023-05-21T11:42:38;15.00;;;11.40;;
70757;SDS011;59316;52.964;7.102;2023-05-21T11:48:00;16.17;;;11.90;;
70757;SDS011;59316;52.964;7.102;2023-05-21T11:53:21;13.95;;;9.77;;
70757;SDS011;59316;52.964;7.102;2023-05-21T11:58:43;16.63;;;11.27;;
70757;SDS011;59316;52.964;7.102;2023-05-21T12:04:04;15.38;;;11.23;;
70757;SDS011;59316;52.964;7.102;2023-05-21T12:09:26;15.45;;;11.38;;
70757;SDS011;59316;52.964;7.102;2023-05-21T12:14:48;15.98;;;12.20;;
70757;SDS011;59316;52.964;7.102;2023-05-21T12:20:13;17.13;;;11.98;;
70757;SDS011;59316;52.964;7.102;2023-05-21T12:25:35;17.63;;;12.13;;
70757;SDS011;59316;52.964;7.102;2023-05-21T12:30:56;18.00;;;13.20;;
70757;SDS011;59316;52.964;7.102;2023-05-21T12:36:22;18.75;;;12.85;;
70757;SDS011;59316;52.964;7.102;2023-05-21T12:41:47;18.10;;;12.65;;
70757;SDS011;59316;52.964;7.102;2023-05-21T12:47:14;17.92;;;12.50;;
70757;SDS011;59316;52.964;7.102;2023-05-21T12:52:36;17.58;;;11.93;;
70757;SDS011;59316;52.964;7.102;2023-05-21T12:58:05;14.70;;;10.85;;
70757;SDS011;59316;52.964;7.102;2023-05-21T13:03:27;13.48;;;10.88;;
70757;SDS011;59316;52.964;7.102;2023-05-21T13:08:48;19.13;;;11.70;;
70757;SDS011;59316;52.964;7.102;2023-05-21T13:14:09;14.20;;;10.63;;
70757;SDS011;59316;52.964;7.102;2023-05-21T13:19:30;17.03;;;11.23;;
70757;SDS011;59316;52.964;7.102;2023-05-21T13:24:52;16.80;;;12.20;;
70757;SDS011;59316;52.964;7.102;2023-05-21T13:30:14;19.50;;;12.53;;
70757;SDS011;59316;52.964;7.102;2023-05-21T13:35:35;14.17;;;10.53;;
70757;SDS011;59316;52.964;7.102;2023-05-21T13:40:57;18.17;;;12.13;;
70757;SDS011;59316;52.964;7.102;2023-05-21T13:46:19;19.50;;;15.30;;
70757;SDS011;59316;52.964;7.102;2023-05-21T13:51:41;18.37;;;13.47;;
70757;SDS011;59316;52.964;7.102;2023-05-21T13:57:02;19.90;;;14.03;;
70757;SDS011;59316;52.964;7.102;2023-05-21T14:02:24;19.00;;;12.53;;
70757;SDS011;59316;52.964;7.102;2023-05-21T14:07:46;17.08;;;11.63;;
70757;SDS011;59316;52.964;7.102;2023-05-21T14:13:07;18.60;;;13.27;;
70757;SDS011;59316;52.964;7.102;2023-05-21T14:18:38;21.15;;;13.05;;
70757;SDS011;59316;52.964;7.102;2023-05-21T14:24:00;15.50;;;11.38;;
70757;SDS011;59316;52.964;7.102;2023-05-21T14:29:22;19.50;;;13.20;;
70757;SDS011;59316;52.964;7.102;2023-05-21T14:34:43;20.55;;;14.25;;
70757;SDS011;59316;52.964;7.102;2023-05-21T14:40:05;20.75;;;14.02;;
70757;SDS011;59316;52.964;7.102;2023-05-21T14:45:27;19.38;;;13.40;;
70757;SDS011;59316;52.964;7.102;2023-05-21T14:50:49;23.45;;;14.40;;
70757;SDS011;59316;52.964;7.102;2023-05-21T14:56:11;20.67;;;14.45;;
70757;SDS011;59316;52.964;7.102;2023-05-21T15:01:32;25.20;;;14.05;;
70757;SDS011;59316;52.964;7.102;2023-05-21T15:06:54;20.63;;;14.30;;
70757;SDS011;59316;52.964;7.102;2023-05-21T15:12:15;19.95;;;13.23;;
70757;SDS011;59316;52.964;7.102;2023-05-21T15:17:37;19.83;;;13.13;;
70757;SDS011;59316;52.964;7.102;2023-05-21T15:22:59;19.90;;;13.23;;
70757;SDS011;59316;52.964;7.102;2023-05-21T15:28:35;20.27;;;13.27;;
70757;SDS011;59316;52.964;7.102;2023-05-21T15:33:56;20.55;;;12.75;;
70757;SDS011;59316;52.964;7.102;2023-05-21T15:39:19;18.38;;;13.57;;
70757;SDS011;59316;52.964;7.102;2023-05-21T15:44:40;21.88;;;13.82;;
70757;SDS011;59316;52.964;7.102;2023-05-21T15:50:02;21.88;;;14.55;;
70757;SDS011;59316;52.964;7.102;2023-05-21T15:55:23;20.48;;;12.40;;
70757;SDS011;59316;52.964;7.102;2023-05-21T16:00:45;22.60;;;14.55;;
70757;SDS011;59316;52.964;7.102;2023-05-21T16:06:07;20.75;;;13.55;;
70757;SDS011;59316;52.964;7.102;2023-05-21T16:11:28;23.73;;;15.07;;
70757;SDS011;59316;52.964;7.102;2023-05-21T16:16:50;21.55;;;13.18;;
70757;SDS011;59316;52.964;7.102;2023-05-21T16:22:11;19.70;;;12.38;;
70757;SDS011;59316;52.964;7.102;2023-05-21T16:27:33;21.10;;;13.52;;
70757;SDS011;59316;52.964;7.102;2023-05-21T16:32:54;22.05;;;13.10;;
70757;SDS011;59316;52.964;7.102;2023-05-21T16:38:19;19.05;;;12.27;;
70757;SDS011;59316;52.964;7.102;2023-05-21T16:43:43;22.25;;;13.63;;
70757;SDS011;59316;52.964;7.102;2023-05-21T16:49:04;18.38;;;12.55;;
70757;SDS011;59316;52.964;7.102;2023-05-21T16:54:26;24.40;;;13.80;;
70757;SDS011;59316;52.964;7.102;2023-05-21T16:59:47;20.92;;;14.40;;
70757;SDS011;59316;52.964;7.102;2023-05-21T17:05:09;25.90;;;15.32;;
70757;SDS011;59316;52.964;7.102;2023-05-21T17:10:30;24.92;;;14.75;;
70757;SDS011;59316;52.964;7.102;2023-05-21T17:15:52;21.90;;;13.65;;
70757;SDS011;59316;52.964;7.102;2023-05-21T17:21:14;21.52;;;13.98;;
70757;SDS011;59316;52.964;7.102;2023-05-21T17:26:36;22.75;;;14.85;;
70757;SDS011;59316;52.964;7.102;2023-05-21T17:31:58;22.70;;;14.15;;
70757;SDS011;59316;52.964;7.102;2023-05-21T17:37:19;22.50;;;14.05;;
70757;SDS011;59316;52.964;7.102;2023-05-21T17:42:41;21.42;;;14.32;;
70757;SDS011;59316;52.964;7.102;2023-05-21T17:48:03;22.80;;;15.43;;
70757;SDS011;59316;52.964;7.102;2023-05-21T17:53:24;21.95;;;15.70;;
70757;SDS011;59316;52.964;7.102;2023-05-21T17:58:46;23.70;;;14.60;;
70757;SDS011;59316;52.964;7.102;2023-05-21T18:04:07;24.67;;;15.25;;
70757;SDS011;59316;52.964;7.102;2023-05-21T18:09:29;23.02;;;15.35;;
70757;SDS011;59316;52.964;7.102;2023-05-21T18:14:50;22.00;;;14.50;;
70757;SDS011;59316;52.964;7.102;2023-05-21T18:20:12;26.00;;;15.52;;
70757;SDS011;59316;52.964;7.102;2023-05-21T18:25:33;25.23;;;15.95;;
70757;SDS011;59316;52.964;7.102;2023-05-21T18:30:55;27.00;;;14.88;;
70757;SDS011;59316;52.964;7.102;2023-05-21T18:36:17;27.33;;;16.58;;
70757;SDS011;59316;52.964;7.102;2023-05-21T18:41:39;25.67;;;16.33;;
70757;SDS011;59316;52.964;7.102;2023-05-21T18:47:00;26.40;;;15.90;;
70757;SDS011;59316;52.964;7.102;2023-05-21T18:52:22;28.52;;;16.45;;
70757;SDS011;59316;52.964;7.102;2023-05-21T18:57:43;25.33;;;17.48;;
70757;SDS011;59316;52.964;7.102;2023-05-21T19:03:05;28.08;;;17.20;;
70757;SDS011;59316;52.964;7.102;2023-05-21T19:08:26;32.47;;;17.80;;
70757;SDS011;59316;52.964;7.102;2023-05-21T19:13:48;27.95;;;17.65;;
70757;SDS011;59316;52.964;7.102;2023-05-21T19:19:09;28.75;;;17.98;;
70757;SDS011;59316;52.964;7.102;2023-05-21T19:24:31;32.67;;;18.73;;
70757;SDS011;59316;52.964;7.102;2023-05-21T19:29:53;29.25;;;18.65;;
70757;SDS011;59316;52.964;7.102;2023-05-21T19:35:14;29.67;;;19.33;;
70757;SDS011;59316;52.964;7.102;2023-05-21T19:40:36;33.35;;;19.60;;
70757;SDS011;59316;52.964;7.102;2023-05-21T19:45:58;33.03;;;19.92;;
70757;SDS011;59316;52.964;7.102;2023-05-21T19:51:20;34.20;;;20.65;;
70757;SDS011;59316;52.964;7.102;2023-05-21T19:56:41;37.03;;;20.52;;
70757;SDS011;59316;52.964;7.102;2023-05-21T20:02:03;34.58;;;21.42;;
70757;SDS011;59316;52.964;7.102;2023-05-21T20:07:25;35.08;;;21.20;;
70757;SDS011;59316;52.964;7.102;2023-05-21T20:12:46;34.25;;;19.90;;
70757;SDS011;59316;52.964;7.102;2023-05-21T20:18:07;36.55;;;22.48;;
70757;SDS011;59316;52.964;7.102;2023-05-21T20:23:29;37.30;;;22.23;;
70757;SDS011;59316;52.964;7.102;2023-05-21T20:28:51;35.42;;;22.23;;
70757;SDS011;59316;52.964;7.102;2023-05-21T20:34:12;36.72;;;22.95;;
70757;SDS011;59316;52.964;7.102;2023-05-21T20:39:34;40.10;;;23.52;;
70757;SDS011;59316;52.964;7.102;2023-05-21T20:44:56;39.35;;;24.02;;
70757;SDS011;59316;52.964;7.102;2023-05-21T20:50:17;38.72;;;23.98;;
70757;SDS011;59316;52.964;7.102;2023-05-21T20:55:39;35.55;;;22.67;;
70757;SDS011;59316;52.964;7.102;2023-05-21T21:01:04;37.88;;;24.67;;
70757;SDS011;59316;52.964;7.102;2023-05-21T21:06:25;39.90;;;24.20;;
70757;SDS011;59316;52.964;7.102;2023-05-21T21:11:47;39.22;;;24.38;;
70757;SDS011;59316;52.964;7.102;2023-05-21T21:17:08;41.35;;;24.08;;
70757;SDS011;59316;52.964;7.102;2023-05-21T21:22:30;39.92;;;24.50;;
70757;SDS011;59316;52.964;7.102;2023-05-21T21:27:52;38.85;;;24.17;;
70757;SDS011;59316;52.964;7.102;2023-05-21T21:33:13;38.33;;;24.00;;
70757;SDS011;59316;52.964;7.102;2023-05-21T21:38:35;37.38;;;23.52;;
70757;SDS011;59316;52.964;7.102;2023-05-21T21:43:56;40.65;;;24.73;;
70757;SDS011;59316;52.964;7.102;2023-05-21T21:49:18;43.03;;;25.52;;
70757;SDS011;59316;52.964;7.102;2023-05-21T21:54:39;37.60;;;24.40;;
70757;SDS011;59316;52.964;7.102;2023-05-21T22:00:01;40.65;;;24.98;;
70757;SDS011;59316;52.964;7.102;2023-05-21T22:05:23;41.20;;;26.23;;
70757;SDS011;59316;52.964;7.102;2023-05-21T22:10:45;39.53;;;24.27;;
70757;SDS011;59316;52.964;7.102;2023-05-21T22:16:06;32.75;;;22.60;;
70757;SDS011;59316;52.964;7.102;2023-05-21T22:21:28;34.83;;;23.00;;
70757;SDS011;59316;52.964;7.102;2023-05-21T22:26:49;31.00;;;21.70;;
70757;SDS011;59316;52.964;7.102;2023-05-21T22:32:11;33.70;;;22.27;;
70757;SDS011;59316;52.964;7.102;2023-05-21T22:37:33;38.05;;;24.08;;
70757;SDS011;59316;52.964;7.102;2023-05-21T22:42:55;39.33;;;23.35;;
70757;SDS011;59316;52.964;7.102;2023-05-21T22:48:16;34.53;;;22.45;;
70757;SDS011;59316;52.964;7.102;2023-05-21T22:53:38;33.92;;;22.60;;
70757;SDS011;59316;52.964;7.102;2023-05-21T22:59:00;30.98;;;21.58;;
70757;SDS011;59316;52.964;7.102;2023-05-21T23:04:22;29.45;;;21.33;;
70757;SDS011;59316;52.964;7.102;2023-05-21T23:09:55;32.20;;;20.85;;
70757;SDS011;59316;52.964;7.102;2023-05-21T23:15:16;27.77;;;20.08;;
70757;SDS011;59316;52.964;7.102;2023-05-21T23:20:38;32.30;;;21.67;;
70757;SDS011;59316;52.964;7.102;2023-05-21T23:26:00;33.55;;;21.67;;
70757;SDS011;59316;52.964;7.102;2023-05-21T23:31:22;29.08;;;20.10;;
70757;SDS011;59316;52.964;7.102;2023-05-21T23:36:43;33.00;;;20.50;;
70757;SDS011;59316;52.964;7.102;2023-05-21T23:42:05;33.22;;;20.80;;
70757;SDS011;59316;52.964;7.102;2023-05-21T23:47:26;35.88;;;22.45;;
70757;SDS011;59316;52.964;7.102;2023-05-21T23:52:48;32.47;;;21.17;;
70757;SDS011;59316;52.964;7.102;2023-05-21T23:58:10;36.30;;;23.17;;
